Main page
METAR-TAF:

METAR-TAF

Airports :

Genoa Cristoforo Colombo Airport

Genoa, Italy

latitude: 44-25N, longitude: 008-51E, elevation: 2 m

Current weather observation

The report was made 48 minutes ago, at 19:20 UTC
Wind 3 kt from the Northeast
Temperature 14°C
Humidity 51%
Pressure 1019 hPa
Visibility 10 km or more
no clouds below 1500 m and no cumulonimbus

METAR: LIMJ 241920Z 04003KT CAVOK 14/04 Q1019

Time: 21:08 (20:08 UTC)

Forecast

The report was made 3 hours and 8 minutes ago, at 17:00 UTC
Forecast valid from 24 at 18 UTC to 25 at 18 UTC
Wind 7 kt from the Southeast
Visibility 10 km or more
no clouds below 1500 m and no cumulonimbus
Becoming
from 25 at 16 UTC to 25 at 18 UTC
Wind 12 kt from the North

TAF: LIMJ 241700Z 2418/2518 14007KT CAVOK BECMG 2516/2518 35012KT

Weather observations and forecasts of more than 4000 airports (METAR and TAF reports).

The available stations are represented by yellow and red dots on the map.

Hover mouse over dot to see the name of the station.

Then click to see weather observations and forecasts.

To change the map : click on the green buttons with a black cross to zoom in, on the green button with a dash to zoom out, or on the green arrows for adjacent maps.


METAR-TAF: